createdAt,value
2023-05-10T00:00:07.542Z,453.8462
2023-05-10T00:01:09.373Z,455.1538
2023-05-10T00:02:11.260Z,455.6154
2023-05-10T00:03:13.082Z,455.7692
2023-05-10T00:04:15.021Z,459.1538
2023-05-10T00:05:16.714Z,444.3846
2023-05-10T00:06:18.543Z,442.1538
2023-05-10T00:07:20.356Z,439.7692
2023-05-10T00:08:22.200Z,431.7692
2023-05-10T00:09:24.060Z,422.8462
2023-05-10T00:10:25.855Z,444.7692
2023-05-10T00:11:27.715Z,451.9231
2023-05-10T00:12:29.546Z,453.9231
2023-05-10T00:13:31.439Z,456.9231
2023-05-10T00:14:33.274Z,457.9231
2023-05-10T00:15:35.044Z,457.1538
2023-05-10T00:16:36.925Z,456.3846
2023-05-10T00:17:38.769Z,456.3846
2023-05-10T00:18:40.546Z,456.0769
2023-05-10T00:19:42.374Z,456.6923
2023-05-10T00:20:44.212Z,457.1538
2023-05-10T00:21:46.050Z,457.4615
2023-05-10T00:22:47.886Z,455.6923
2023-05-10T00:23:49.722Z,441.4615
2023-05-10T00:24:51.547Z,440.6923
2023-05-10T00:25:53.399Z,433.3077
2023-05-10T00:26:55.236Z,443.2308
2023-05-10T00:27:57.052Z,447.6923
2023-05-10T00:28:58.901Z,449.1538
2023-05-10T00:30:00.725Z,452.0000
2023-05-10T00:31:02.568Z,455.0769
2023-05-10T00:32:04.475Z,456.0769
2023-05-10T00:33:06.308Z,456.3077
2023-05-10T00:34:08.064Z,458.2308
2023-05-10T00:35:09.919Z,460.2308
2023-05-10T00:36:11.788Z,459.2308
2023-05-10T00:37:13.601Z,457.8462
2023-05-10T00:38:15.417Z,455.7692
2023-05-10T00:39:17.267Z,455.0000
2023-05-10T00:40:19.232Z,456.4615
2023-05-10T00:41:20.942Z,450.0000
2023-05-10T00:42:22.763Z,446.6154
2023-05-10T00:43:24.592Z,432.6923
2023-05-10T00:44:26.422Z,434.5385
2023-05-10T00:45:28.282Z,445.2308
2023-05-10T00:46:30.192Z,443.6154
2023-05-10T00:47:31.964Z,446.3846
2023-05-10T00:48:33.786Z,448.3846
2023-05-10T00:49:35.611Z,450.3077
2023-05-10T00:50:37.462Z,452.9231
2023-05-10T00:51:39.268Z,453.5385
2023-05-10T00:52:41.091Z,457.4615
2023-05-10T00:53:42.942Z,459.0000
2023-05-10T00:54:44.762Z,456.6154
2023-05-10T00:55:46.589Z,456.9231
2023-05-10T00:56:48.445Z,458.5385
2023-05-10T00:57:50.250Z,459.6923
2023-05-10T00:58:52.098Z,453.0000
2023-05-10T00:59:53.930Z,452.8462
2023-05-10T01:00:55.762Z,430.7692
2023-05-10T01:01:57.612Z,443.3077
2023-05-10T01:02:59.514Z,452.3077
2023-05-10T01:04:01.257Z,446.6923
2023-05-10T01:05:03.178Z,449.0769
2023-05-10T01:06:04.932Z,456.6154
2023-05-10T01:07:06.762Z,459.6923
2023-05-10T01:08:08.636Z,461.3077
2023-05-10T01:09:10.437Z,459.5385
2023-05-10T01:10:12.283Z,458.8462
2023-05-10T01:11:14.118Z,460.0000
2023-05-10T01:12:16.012Z,459.2308
2023-05-10T01:13:17.807Z,460.2308
2023-05-10T01:14:19.608Z,459.9231
2023-05-10T01:15:21.457Z,459.3846
2023-05-10T01:16:23.368Z,457.2308
2023-05-10T01:17:25.121Z,457.6154
2023-05-10T01:18:26.944Z,443.8462
2023-05-10T01:19:28.798Z,444.8462
2023-05-10T01:20:30.644Z,432.0769
2023-05-10T01:21:32.464Z,452.7692
2023-05-10T01:22:34.310Z,455.0769
2023-05-10T01:23:36.139Z,459.6154
2023-05-10T01:24:37.956Z,459.8462
2023-05-10T01:25:39.796Z,457.5385
2023-05-10T01:26:41.652Z,458.0000
2023-05-10T01:27:43.481Z,461.7692
2023-05-10T01:28:45.319Z,463.2308
2023-05-10T01:29:47.140Z,462.0769
2023-05-10T01:30:48.983Z,462.8462
2023-05-10T01:31:50.892Z,462.7692
2023-05-10T01:32:52.731Z,462.4615
2023-05-10T01:33:54.508Z,462.4615
2023-05-10T01:34:56.325Z,452.2308
2023-05-10T01:35:58.166Z,457.5385
2023-05-10T01:37:00.039Z,426.0769
2023-05-10T01:38:01.850Z,444.9231
2023-05-10T01:39:03.706Z,448.9231
2023-05-10T01:40:05.526Z,456.6154
2023-05-10T01:41:07.356Z,457.4615
2023-05-10T01:42:09.197Z,459.1538
2023-05-10T01:43:11.039Z,458.3077
2023-05-10T01:44:12.864Z,460.5385
2023-05-10T01:45:14.727Z,464.1538
2023-05-10T01:46:16.593Z,464.7692
2023-05-10T01:47:18.387Z,466.8462
2023-05-10T01:48:20.211Z,466.2308
2023-05-10T01:49:22.051Z,464.8462
2023-05-10T01:50:23.890Z,464.8462
2023-05-10T01:51:25.766Z,460.6154
2023-05-10T01:52:27.567Z,458.2308
2023-05-10T01:53:29.396Z,437.6154
2023-05-10T01:54:31.244Z,449.8462
2023-05-10T01:55:33.079Z,427.3077
2023-05-10T01:56:34.898Z,451.2308
2023-05-10T01:57:36.812Z,465.7692
2023-05-10T01:58:38.579Z,462.1538
2023-05-10T01:59:40.419Z,460.0769
2023-05-10T02:00:42.285Z,462.6923
2023-05-10T02:01:44.077Z,464.0000
2023-05-10T02:02:46.026Z,464.0769
2023-05-10T02:03:47.810Z,463.0000
2023-05-10T02:04:49.584Z,463.6154
2023-05-10T02:05:59.055Z,463.8462
2023-05-10T02:06:53.280Z,464.5000
2023-05-10T02:07:55.100Z,463.9231
2023-05-10T02:08:56.931Z,464.4615
2023-05-10T02:09:58.769Z,459.5385
2023-05-10T02:11:00.595Z,441.8462
2023-05-10T02:12:02.425Z,442.3077
2023-05-10T02:13:04.381Z,422.0000
2023-05-10T02:14:06.117Z,463.8462
2023-05-10T02:15:07.949Z,436.8462
2023-05-10T02:16:09.841Z,456.3077
2023-05-10T02:17:11.608Z,456.4615
2023-05-10T02:18:13.456Z,461.3077
2023-05-10T02:19:15.292Z,461.6154
2023-05-10T02:20:17.469Z,461.5385
2023-05-10T02:21:19.020Z,461.3846
2023-05-10T02:22:20.873Z,461.2308
2023-05-10T02:23:22.712Z,462.1538
2023-05-10T02:24:24.507Z,463.4615
2023-05-10T02:25:26.350Z,463.8462
2023-05-10T02:26:28.191Z,464.2308
2023-05-10T02:27:30.041Z,462.5385
2023-05-10T02:28:31.867Z,456.5385
2023-05-10T02:29:33.678Z,437.3077
2023-05-10T02:30:35.512Z,437.0000
2023-05-10T02:31:37.386Z,434.9231
2023-05-10T02:32:39.217Z,451.4615
2023-05-10T02:33:41.018Z,452.6154
2023-05-10T02:34:42.844Z,458.4615
2023-05-10T02:35:44.695Z,460.1538
2023-05-10T02:36:46.526Z,461.0000
2023-05-10T02:37:48.348Z,460.3846
2023-05-10T02:38:50.194Z,461.7692
2023-05-10T02:39:52.027Z,462.1538
2023-05-10T02:40:53.867Z,462.6154
2023-05-10T02:41:55.703Z,462.5385
2023-05-10T02:42:57.540Z,463.5385
2023-05-10T02:43:59.373Z,467.0000
2023-05-10T02:45:01.225Z,467.6154
2023-05-10T02:46:03.063Z,462.6154
2023-05-10T02:47:04.865Z,445.3846
2023-05-10T02:48:06.736Z,434.4615
2023-05-10T02:49:08.550Z,445.2308
2023-05-10T02:50:10.376Z,445.9231
2023-05-10T02:51:12.215Z,456.6154
2023-05-10T02:52:14.051Z,454.7692
2023-05-10T02:53:15.880Z,458.6154
2023-05-10T02:54:17.741Z,461.0769
2023-05-10T02:55:19.563Z,461.7692
2023-05-10T02:56:21.405Z,463.5385
2023-05-10T02:57:23.223Z,465.6923
2023-05-10T02:58:25.079Z,467.3077
2023-05-10T02:59:26.911Z,467.5385
2023-05-10T03:00:28.746Z,465.0000
2023-05-10T03:01:30.604Z,463.8462
2023-05-10T03:02:32.533Z,465.0000
2023-05-10T03:03:34.243Z,459.0000
2023-05-10T03:04:36.129Z,458.9231
2023-05-10T03:05:37.939Z,443.2308
2023-05-10T03:06:39.788Z,444.3846
2023-05-10T03:07:41.606Z,451.3077
2023-05-10T03:08:43.446Z,451.1538
2023-05-10T03:09:45.290Z,460.6154
2023-05-10T03:10:47.124Z,461.6154
2023-05-10T03:11:48.944Z,462.7692
2023-05-10T03:12:50.807Z,465.7692
2023-05-10T03:13:52.636Z,468.6923
2023-05-10T03:14:54.489Z,470.1538
2023-05-10T03:15:56.346Z,471.6923
2023-05-10T03:16:58.136Z,471.2308
2023-05-10T03:18:00.014Z,470.6923
2023-05-10T03:19:01.827Z,471.0769
2023-05-10T03:20:03.669Z,473.0000
2023-05-10T03:21:05.497Z,466.8462
2023-05-10T03:22:07.333Z,453.0769
2023-05-10T03:23:09.164Z,450.0769
2023-05-10T03:24:11.009Z,432.5385
2023-05-10T03:25:12.858Z,456.3077
2023-05-10T03:26:14.684Z,443.3077
2023-05-10T03:27:16.650Z,455.2308
2023-05-10T03:28:18.370Z,457.4615
2023-05-10T03:29:20.195Z,461.7692
2023-05-10T03:30:22.033Z,464.3846
2023-05-10T03:31:23.930Z,471.5385
2023-05-10T03:32:25.750Z,473.0769
2023-05-10T03:33:27.521Z,472.1538
2023-05-10T03:34:29.367Z,470.6154
2023-05-10T03:35:31.201Z,469.5385
2023-05-10T03:36:33.047Z,470.6923
2023-05-10T03:37:34.880Z,469.9231
2023-05-10T03:38:36.696Z,471.5385
2023-05-10T03:39:38.542Z,458.0000
2023-05-10T03:40:40.365Z,447.7692
2023-05-10T03:41:42.206Z,458.0769
2023-05-10T03:42:44.037Z,448.2308
2023-05-10T03:43:45.875Z,445.8462
2023-05-10T03:44:47.741Z,461.9231
2023-05-10T03:45:49.579Z,466.0769
2023-05-10T03:46:51.420Z,470.6923
2023-05-10T03:47:53.256Z,469.8462
2023-05-10T03:48:55.070Z,469.6154
2023-05-10T03:49:56.911Z,470.5385
2023-05-10T03:50:58.732Z,468.4615
2023-05-10T03:52:00.588Z,470.7692
2023-05-10T03:53:02.418Z,471.5385
2023-05-10T03:54:04.271Z,470.2308
2023-05-10T03:55:06.088Z,468.9231
2023-05-10T03:56:07.923Z,467.0000
2023-05-10T03:57:09.758Z,463.7692
2023-05-10T03:58:11.592Z,457.2308
2023-05-10T03:59:13.422Z,443.7692
2023-05-10T04:00:15.630Z,444.8462
2023-05-10T04:01:17.103Z,452.7692
2023-05-10T04:02:18.960Z,452.0000
2023-05-10T04:03:20.830Z,461.6923
2023-05-10T04:04:22.605Z,465.0769
2023-05-10T04:05:24.434Z,467.6923
2023-05-10T04:06:26.400Z,466.6154
2023-05-10T04:07:28.110Z,467.0000
2023-05-10T04:08:29.972Z,467.0769
2023-05-10T04:09:31.764Z,467.6923
2023-05-10T04:10:33.611Z,468.6923
2023-05-10T04:11:35.455Z,467.0000
2023-05-10T04:12:37.270Z,466.6923
2023-05-10T04:13:39.244Z,467.6154
2023-05-10T04:14:40.951Z,467.3077
2023-05-10T04:15:42.780Z,464.6154
2023-05-10T04:16:44.678Z,445.2308
2023-05-10T04:17:46.522Z,453.1538
2023-05-10T04:18:48.289Z,441.3077
2023-05-10T04:19:50.139Z,454.3077
2023-05-10T04:20:51.977Z,454.3846
2023-05-10T04:21:53.891Z,454.1538
2023-05-10T04:22:55.643Z,457.1538
2023-05-10T04:23:57.481Z,458.3846
2023-05-10T04:24:59.315Z,461.7692
2023-05-10T04:26:01.168Z,465.7692
2023-05-10T04:27:03.000Z,469.9231
2023-05-10T04:28:04.814Z,469.6923
2023-05-10T04:29:06.648Z,469.6154
2023-05-10T04:30:08.492Z,472.9231
2023-05-10T04:31:10.360Z,470.7692
2023-05-10T04:32:12.164Z,470.3846
2023-05-10T04:33:14.034Z,464.6154
2023-05-10T04:34:15.830Z,458.4615
2023-05-10T04:35:17.680Z,439.1538
2023-05-10T04:36:19.510Z,456.3077
2023-05-10T04:37:21.342Z,450.2308
2023-05-10T04:38:23.178Z,460.7692
2023-05-10T04:39:25.024Z,469.1538
2023-05-10T04:40:26.859Z,470.3846
2023-05-10T04:41:28.689Z,469.4615
2023-05-10T04:42:30.539Z,469.5385
2023-05-10T04:43:32.382Z,470.6154
2023-05-10T04:44:34.201Z,472.6154
2023-05-10T04:45:36.050Z,473.0000
2023-05-10T04:46:37.966Z,472.1538
2023-05-10T04:47:39.820Z,471.4615
2023-05-10T04:48:41.571Z,473.4615
2023-05-10T04:49:43.416Z,473.7692
2023-05-10T04:50:45.244Z,462.6154
2023-05-10T04:51:47.082Z,467.9231
2023-05-10T04:52:48.907Z,440.8462
2023-05-10T04:53:57.820Z,451.9231
2023-05-10T04:54:53.583Z,459.3846
2023-05-10T04:55:54.431Z,456.6154
2023-05-10T04:56:56.256Z,471.2308
2023-05-10T04:57:58.095Z,471.2308
2023-05-10T04:58:59.935Z,472.4615
2023-05-10T05:00:01.766Z,470.6923
2023-05-10T05:01:03.585Z,469.8462
2023-05-10T05:02:05.611Z,468.9231
2023-05-10T05:03:07.289Z,469.9231
2023-05-10T05:04:09.088Z,468.1538
2023-05-10T05:05:10.920Z,466.5385
2023-05-10T05:06:12.777Z,468.6923
2023-05-10T05:07:14.608Z,469.8462
2023-05-10T05:08:16.436Z,466.4615
2023-05-10T05:09:18.285Z,462.2308
2023-05-10T05:10:20.260Z,445.3077
2023-05-10T05:11:21.945Z,451.4615
2023-05-10T05:12:23.771Z,451.0769
2023-05-10T05:13:25.713Z,448.6923
2023-05-10T05:14:27.465Z,459.4615
2023-05-10T05:15:29.304Z,463.1538
2023-05-10T05:16:31.219Z,464.6923
2023-05-10T05:17:33.010Z,466.6923
2023-05-10T05:18:34.796Z,469.3077
2023-05-10T05:19:36.631Z,468.7692
2023-05-10T05:20:38.481Z,468.7692
2023-05-10T05:21:40.362Z,468.3846
2023-05-10T05:22:42.154Z,468.2308
2023-05-10T05:23:43.976Z,468.3077
2023-05-10T05:24:45.812Z,466.6923
2023-05-10T05:25:47.666Z,465.3077
2023-05-10T05:26:49.504Z,462.7692
2023-05-10T05:27:51.345Z,460.2308
2023-05-10T05:28:53.164Z,448.0000
2023-05-10T05:29:55.039Z,452.0769
2023-05-10T05:30:56.842Z,440.0000
2023-05-10T05:31:58.729Z,457.5385
2023-05-10T05:33:00.664Z,456.5385
2023-05-10T05:34:02.372Z,459.6154
2023-05-10T05:35:04.200Z,466.2308
2023-05-10T05:36:06.061Z,467.6923
2023-05-10T05:37:07.885Z,471.7692
2023-05-10T05:38:09.722Z,471.6154
2023-05-10T05:39:11.545Z,470.2308
2023-05-10T05:40:13.398Z,471.7692
2023-05-10T05:41:15.224Z,468.6923
2023-05-10T05:42:17.043Z,468.5385
2023-05-10T05:43:18.897Z,468.7692
2023-05-10T05:44:20.714Z,472.5385
2023-05-10T05:45:22.551Z,459.1538
2023-05-10T05:46:24.479Z,453.9231
2023-05-10T05:47:26.287Z,433.1538
2023-05-10T05:48:28.056Z,451.3846
2023-05-10T05:49:29.918Z,454.6923
2023-05-10T05:50:31.748Z,460.6154
2023-05-10T05:51:33.570Z,461.4615
2023-05-10T05:52:35.411Z,465.0000
2023-05-10T05:53:37.265Z,466.9231
2023-05-10T05:54:39.102Z,465.5385
2023-05-10T05:55:40.950Z,465.9231
2023-05-10T05:56:42.778Z,467.1538
2023-05-10T05:57:44.616Z,472.0000
2023-05-10T05:58:46.462Z,472.7692
2023-05-10T05:59:48.290Z,473.4615
2023-05-10T06:00:50.124Z,472.5385
2023-05-10T06:01:51.962Z,473.0000
2023-05-10T06:02:53.837Z,468.3846
2023-05-10T06:03:55.771Z,454.3846
2023-05-10T06:04:57.484Z,452.0000
2023-05-10T06:05:59.291Z,446.2308
2023-05-10T06:07:01.142Z,448.6923
2023-05-10T06:08:02.994Z,454.3846
2023-05-10T06:09:04.806Z,456.3846
2023-05-10T06:10:06.656Z,460.5385
2023-05-10T06:11:08.487Z,464.0769
2023-05-10T06:12:10.322Z,467.5385
2023-05-10T06:13:12.206Z,466.5385
2023-05-10T06:14:14.010Z,469.9231
2023-05-10T06:15:16.014Z,471.9231
2023-05-10T06:16:17.726Z,469.8462
2023-05-10T06:17:19.533Z,468.4615
2023-05-10T06:18:21.348Z,467.4615
2023-05-10T06:19:23.221Z,468.7692
2023-05-10T06:20:25.047Z,465.4615
2023-05-10T06:21:26.880Z,457.0000
2023-05-10T06:22:28.773Z,441.2308
2023-05-10T06:23:30.631Z,464.3846
2023-05-10T06:24:32.450Z,452.6154
2023-05-10T06:25:34.287Z,465.3077
2023-05-10T06:26:36.141Z,459.9231
2023-05-10T06:27:37.962Z,464.8462
2023-05-10T06:28:39.795Z,467.1538
2023-05-10T06:29:41.629Z,467.5385
2023-05-10T06:30:43.477Z,469.3077
2023-05-10T06:31:45.400Z,469.6154
2023-05-10T06:32:47.281Z,469.6154
2023-05-10T06:33:48.994Z,469.1538
2023-05-10T06:34:50.815Z,469.6154
2023-05-10T06:35:52.655Z,467.5385
2023-05-10T06:36:54.512Z,467.2308
2023-05-10T06:37:56.335Z,465.4615
2023-05-10T06:38:58.173Z,459.2308
2023-05-10T06:40:00.015Z,452.0769
2023-05-10T06:41:01.846Z,433.6923
2023-05-10T06:42:03.693Z,457.0000
2023-05-10T06:43:05.511Z,444.3846
2023-05-10T06:44:07.360Z,457.1538
2023-05-10T06:45:09.202Z,456.7692
2023-05-10T06:46:11.061Z,459.9231
2023-05-10T06:47:12.870Z,462.6154
2023-05-10T06:48:14.743Z,467.0000
2023-05-10T06:49:16.572Z,467.0769
2023-05-10T06:50:18.367Z,467.0769
2023-05-10T06:51:20.204Z,463.8462
2023-05-10T06:52:22.034Z,464.8462
2023-05-10T06:53:23.886Z,465.1538
2023-05-10T06:54:25.726Z,464.6154
2023-05-10T06:55:27.552Z,463.8462
2023-05-10T06:56:29.388Z,452.6154
2023-05-10T06:57:32.195Z,449.8462
2023-05-10T06:58:33.088Z,427.2308
2023-05-10T06:59:34.980Z,443.3846
2023-05-10T07:00:36.781Z,436.1538
2023-05-10T07:01:38.592Z,448.6923
2023-05-10T07:02:40.408Z,459.0769
2023-05-10T07:03:42.281Z,457.6923
2023-05-10T07:04:44.091Z,454.8462
2023-05-10T07:05:45.900Z,455.5385
2023-05-10T07:06:47.763Z,457.0769
2023-05-10T07:07:49.573Z,463.6923
2023-05-10T07:08:51.432Z,463.6923
2023-05-10T07:09:53.251Z,462.0769
2023-05-10T07:10:55.090Z,460.7692
2023-05-10T07:11:56.942Z,460.8462
2023-05-10T07:12:58.828Z,463.1538
2023-05-10T07:14:00.632Z,452.4615
2023-05-10T07:15:02.447Z,454.9231
2023-05-10T07:16:04.333Z,422.0769
2023-05-10T07:17:06.141Z,439.5385
2023-05-10T07:18:08.030Z,435.3846
2023-05-10T07:19:09.797Z,449.7692
2023-05-10T07:20:11.633Z,459.7692
2023-05-10T07:21:13.525Z,462.0769
2023-05-10T07:22:15.320Z,463.3077
2023-05-10T07:23:17.148Z,461.4615
2023-05-10T07:24:19.000Z,458.7692
2023-05-10T07:25:20.817Z,456.6154
2023-05-10T07:26:22.672Z,456.0769
2023-05-10T07:27:24.510Z,457.3846
2023-05-10T07:28:26.348Z,459.4615
2023-05-10T07:29:28.195Z,460.8462
2023-05-10T07:30:30.047Z,462.3846
2023-05-10T07:31:31.910Z,452.0769
2023-05-10T07:32:33.822Z,460.3077
2023-05-10T07:33:35.516Z,422.4615
2023-05-10T07:34:37.374Z,444.3077
2023-05-10T07:35:39.209Z,425.4615
2023-05-10T07:36:41.021Z,453.3846
2023-05-10T07:37:42.854Z,450.5385
2023-05-10T07:38:44.722Z,449.9231
2023-05-10T07:39:46.547Z,451.9231
2023-05-10T07:40:48.370Z,455.3077
2023-05-10T07:41:50.224Z,458.2308
2023-05-10T07:42:52.053Z,457.6923
2023-05-10T07:43:53.922Z,458.2308
2023-05-10T07:44:55.723Z,457.8462
2023-05-10T07:45:57.590Z,458.6923
2023-05-10T07:46:59.411Z,462.3846
2023-05-10T07:48:01.290Z,462.6923
2023-05-10T07:49:03.073Z,451.7692
2023-05-10T07:50:04.924Z,440.5385
2023-05-10T07:51:07.329Z,424.9231
2023-05-10T07:52:08.604Z,435.0000
2023-05-10T07:53:10.444Z,434.5385
2023-05-10T07:54:12.333Z,449.0000
2023-05-10T07:55:14.139Z,456.4615
2023-05-10T07:56:15.941Z,456.6154
2023-05-10T07:57:17.797Z,455.9231
2023-05-10T07:58:19.618Z,455.0000
2023-05-10T07:59:21.471Z,455.3077
2023-05-10T08:00:23.309Z,456.8462
2023-05-10T08:01:25.140Z,461.0769
2023-05-10T08:02:27.071Z,461.3846
2023-05-10T08:03:28.950Z,462.6923
2023-05-10T08:04:30.670Z,458.6923
2023-05-10T08:05:34.046Z,460.4615
2023-05-10T08:06:34.318Z,459.3846
2023-05-10T08:07:36.156Z,452.0769
2023-05-10T08:08:38.004Z,450.6154
2023-05-10T08:09:39.838Z,436.1538
2023-05-10T08:10:41.692Z,428.4615
2023-05-10T08:11:43.508Z,447.6154
2023-05-10T08:12:45.352Z,448.0000
2023-05-10T08:13:47.225Z,453.0000
2023-05-10T08:14:49.033Z,459.8462
2023-05-10T08:15:50.903Z,460.2308
2023-05-10T08:16:52.711Z,461.3846
2023-05-10T08:17:54.555Z,462.6923
2023-05-10T08:18:56.581Z,462.1538
2023-05-10T08:19:58.210Z,462.1538
2023-05-10T08:21:00.062Z,462.0769
2023-05-10T08:22:01.897Z,459.9231
2023-05-10T08:23:03.719Z,459.7692
2023-05-10T08:24:05.567Z,456.1538
2023-05-10T08:25:07.411Z,445.6923
2023-05-10T08:26:09.231Z,445.5385
2023-05-10T08:27:11.082Z,422.2308
2023-05-10T08:28:12.913Z,442.3846
2023-05-10T08:29:14.736Z,446.3077
2023-05-10T08:30:16.566Z,460.5385
2023-05-10T08:31:18.425Z,456.9231
2023-05-10T08:32:20.235Z,455.7692
2023-05-10T08:33:22.082Z,455.6154
2023-05-10T08:34:24.058Z,455.8462
2023-05-10T08:35:25.762Z,457.5385
2023-05-10T08:36:27.599Z,458.7692
2023-05-10T08:37:29.422Z,457.0000
2023-05-10T08:38:31.255Z,456.3077
2023-05-10T08:39:33.089Z,455.6154
2023-05-10T08:40:34.936Z,453.6154
2023-05-10T08:41:36.777Z,452.0000
2023-05-10T08:42:38.620Z,444.3846
2023-05-10T08:43:40.453Z,451.3077
2023-05-10T08:44:42.303Z,426.6923
2023-05-10T08:45:44.158Z,429.1538
2023-05-10T08:46:46.046Z,441.8462
2023-05-10T08:47:47.826Z,446.0000
2023-05-10T08:48:49.663Z,453.3846
2023-05-10T08:49:51.500Z,454.7692
2023-05-10T08:50:53.334Z,453.1538
2023-05-10T08:51:55.171Z,451.9231
2023-05-10T08:52:57.030Z,453.3846
2023-05-10T08:53:58.895Z,453.8462
2023-05-10T08:55:00.691Z,451.6923
2023-05-10T08:56:02.540Z,453.1538
2023-05-10T08:57:04.380Z,454.4615
2023-05-10T08:58:06.229Z,454.7692
2023-05-10T08:59:08.087Z,457.7692
2023-05-10T09:00:09.918Z,451.7692
2023-05-10T09:01:11.761Z,435.1538
2023-05-10T09:02:13.582Z,438.9231
2023-05-10T09:03:15.428Z,416.8462
2023-05-10T09:04:17.378Z,442.6154
2023-05-10T09:05:19.591Z,449.3077
2023-05-10T09:06:20.942Z,452.6154
2023-05-10T09:07:22.787Z,452.6154
2023-05-10T09:08:24.618Z,449.8462
2023-05-10T09:09:26.457Z,450.0000
2023-05-10T09:10:28.333Z,450.6154
2023-05-10T09:11:30.161Z,452.0769
2023-05-10T09:12:31.981Z,452.9231
2023-05-10T09:13:33.825Z,454.8462
2023-05-10T09:14:35.661Z,456.2308
2023-05-10T09:15:37.487Z,456.2308
2023-05-10T09:16:39.424Z,456.5385
2023-05-10T09:17:41.180Z,443.0769
2023-05-10T09:18:43.028Z,443.3077
2023-05-10T09:19:44.863Z,432.3846
2023-05-10T09:20:46.687Z,422.3077
2023-05-10T09:21:48.529Z,439.8462
2023-05-10T09:22:50.352Z,438.2308
2023-05-10T09:23:52.187Z,454.7692
2023-05-10T09:24:54.035Z,455.5385
2023-05-10T09:25:55.873Z,451.0000
2023-05-10T09:26:57.724Z,447.8462
2023-05-10T09:27:59.560Z,448.1538
2023-05-10T09:29:01.389Z,450.5385
2023-05-10T09:30:03.224Z,454.8462
2023-05-10T09:31:05.134Z,457.9231
2023-05-10T09:32:06.883Z,458.3846
2023-05-10T09:33:08.715Z,456.0769
2023-05-10T09:34:10.568Z,458.9231
2023-05-10T09:35:12.398Z,460.3846
2023-05-10T09:36:14.251Z,460.6154
2023-05-10T09:37:16.095Z,459.8462
2023-05-10T09:38:17.922Z,429.8462
2023-05-10T09:39:19.765Z,438.1538
2023-05-10T09:40:21.584Z,447.0000
2023-05-10T09:41:23.431Z,444.8462
2023-05-10T09:42:25.245Z,450.0769
2023-05-10T09:43:27.099Z,453.4615
2023-05-10T09:44:28.912Z,454.3846
2023-05-10T09:45:30.743Z,454.9231
2023-05-10T09:46:32.779Z,453.6154
2023-05-10T09:47:34.453Z,455.8462
2023-05-10T09:48:36.242Z,456.6154
2023-05-10T09:49:38.091Z,458.6154
2023-05-10T09:50:39.913Z,458.3077
2023-05-10T09:51:41.748Z,457.8462
2023-05-10T09:52:43.594Z,454.6154
2023-05-10T09:53:45.414Z,447.3846
2023-05-10T09:54:47.259Z,427.2308
2023-05-10T09:55:49.089Z,417.2308
2023-05-10T09:56:50.934Z,431.3077
2023-05-10T09:57:52.755Z,430.2308
2023-05-10T09:58:54.602Z,449.0769
2023-05-10T09:59:56.430Z,446.9231
2023-05-10T10:00:58.256Z,450.9231
2023-05-10T10:02:00.246Z,451.3846
2023-05-10T10:03:01.954Z,451.4615
2023-05-10T10:04:03.779Z,449.9231
2023-05-10T10:05:05.630Z,450.2308
2023-05-10T10:06:15.874Z,451.3846
2023-05-10T10:07:11.976Z,450.3846
2023-05-10T10:08:12.556Z,450.4615
2023-05-10T10:09:14.117Z,450.2308
2023-05-10T10:10:15.691Z,452.0000
2023-05-10T10:11:17.251Z,449.8462
2023-05-10T10:12:18.802Z,438.0000
2023-05-10T10:13:20.372Z,432.1538
2023-05-10T10:14:22.126Z,420.6154
2023-05-10T10:15:23.971Z,427.6154
2023-05-10T10:16:25.929Z,444.0000
2023-05-10T10:17:27.655Z,439.3077
2023-05-10T10:18:29.511Z,441.0769
2023-05-10T10:19:31.291Z,445.2308
2023-05-10T10:20:33.141Z,447.5385
2023-05-10T10:21:34.980Z,449.0000
2023-05-10T10:22:36.812Z,452.2308
2023-05-10T10:23:38.626Z,452.4615
2023-05-10T10:24:40.468Z,453.8462
2023-05-10T10:25:42.303Z,453.0769
2023-05-10T10:26:44.232Z,452.1538
2023-05-10T10:27:46.039Z,450.8462
2023-05-10T10:28:47.887Z,452.0000
2023-05-10T10:29:49.723Z,438.5385
2023-05-10T10:30:51.562Z,424.7692
2023-05-10T10:31:53.543Z,436.6154
2023-05-10T10:32:55.253Z,429.3846
2023-05-10T10:33:57.053Z,427.4615
2023-05-10T10:34:58.891Z,434.2308
2023-05-10T10:36:00.729Z,441.6154
2023-05-10T10:37:02.563Z,446.3077
2023-05-10T10:38:04.395Z,448.1538
2023-05-10T10:39:06.208Z,448.4615
2023-05-10T10:40:08.038Z,444.4615
2023-05-10T10:41:09.892Z,445.0769
2023-05-10T10:42:11.730Z,446.3077
2023-05-10T10:43:13.541Z,446.3846
2023-05-10T10:44:15.388Z,444.8462
2023-05-10T10:45:17.484Z,443.9231
2023-05-10T10:46:19.136Z,445.7692
2023-05-10T10:47:20.951Z,434.2308
2023-05-10T10:48:22.712Z,438.9231
2023-05-10T10:49:24.547Z,430.7692
2023-05-10T10:50:26.380Z,413.3846
2023-05-10T10:51:28.223Z,435.9231
2023-05-10T10:52:30.058Z,438.7692
2023-05-10T10:53:32.018Z,439.2308
2023-05-10T10:54:33.747Z,442.0769
2023-05-10T10:55:35.553Z,445.8462
2023-05-10T10:56:37.401Z,446.7692
2023-05-10T10:57:39.251Z,447.5385
2023-05-10T10:58:41.074Z,448.8462
2023-05-10T10:59:42.890Z,448.8462
2023-05-10T11:00:44.787Z,448.1538
2023-05-10T11:01:46.576Z,447.0769
2023-05-10T11:02:48.439Z,444.0000
2023-05-10T11:03:50.248Z,443.5385
2023-05-10T11:04:52.077Z,444.6154
2023-05-10T11:05:53.917Z,441.2308
2023-05-10T11:06:55.763Z,425.8462
2023-05-10T11:07:57.599Z,434.8462
2023-05-10T11:08:59.426Z,417.7692
2023-05-10T11:10:01.274Z,436.3846
2023-05-10T11:11:03.151Z,435.2308
2023-05-10T11:12:04.955Z,440.0769
2023-05-10T11:13:06.805Z,441.9231
2023-05-10T11:14:08.644Z,442.0000
2023-05-10T11:15:10.476Z,443.1538
2023-05-10T11:16:12.332Z,443.3846
2023-05-10T11:17:14.181Z,445.5385
2023-05-10T11:18:16.014Z,447.3077
2023-05-10T11:19:17.847Z,448.0000
2023-05-10T11:20:19.864Z,450.0769
2023-05-10T11:21:21.505Z,448.8462
2023-05-10T11:22:23.346Z,448.6154
2023-05-10T11:23:25.182Z,440.3846
2023-05-10T11:24:27.033Z,422.5385
2023-05-10T11:25:28.869Z,435.4615
2023-05-10T11:26:30.712Z,408.3846
2023-05-10T11:27:32.553Z,426.3846
2023-05-10T11:28:34.381Z,429.4615
2023-05-10T11:29:36.237Z,436.6923
2023-05-10T11:30:38.089Z,439.3077
2023-05-10T11:31:39.930Z,440.7692
2023-05-10T11:32:41.784Z,441.1538
2023-05-10T11:33:43.611Z,442.5385
2023-05-10T11:34:45.449Z,443.3077
2023-05-10T11:35:47.289Z,443.2308
2023-05-10T11:36:49.134Z,443.6923
2023-05-10T11:37:50.984Z,445.0000
2023-05-10T11:38:52.809Z,444.3077
2023-05-10T11:39:54.651Z,445.6923
2023-05-10T11:40:56.488Z,439.3077
2023-05-10T11:41:58.329Z,442.4615
2023-05-10T11:43:00.165Z,413.0000
2023-05-10T11:44:02.028Z,429.4615
2023-05-10T11:45:03.864Z,436.2308
2023-05-10T11:46:05.724Z,444.0769
2023-05-10T11:47:07.528Z,443.6923
2023-05-10T11:48:09.419Z,445.0000
2023-05-10T11:49:11.208Z,447.4615
2023-05-10T11:50:13.034Z,449.3077
2023-05-10T11:51:14.900Z,451.4615
2023-05-10T11:52:16.713Z,454.3846
2023-05-10T11:53:18.568Z,457.3846
2023-05-10T11:54:20.401Z,456.4615
2023-05-10T11:55:22.239Z,454.4615
2023-05-10T11:56:24.073Z,460.1538
2023-05-10T11:57:25.931Z,461.5385
2023-05-10T11:58:27.755Z,449.6154
2023-05-10T11:59:29.608Z,440.8462
2023-05-10T12:00:31.442Z,443.3077
2023-05-10T12:01:33.283Z,422.7692
2023-05-10T12:02:35.245Z,435.4615
2023-05-10T12:03:37.054Z,445.2308
2023-05-10T12:04:38.857Z,439.3846
2023-05-10T12:05:42.897Z,448.6923